sensor_id;sensor_type;location;lat;lon;timestamp;pressure;altitude;pressure_sealevel;temperature;humidity
51147;BME280;37207;53.060;18.726;2024-01-15T00:01:07;98315.28;;;0.65;100.00
51147;BME280;37207;53.060;18.726;2024-01-15T00:03:54;98312.86;;;0.66;100.00
51147;BME280;37207;53.060;18.726;2024-01-15T00:06:20;98309.09;;;0.65;100.00
51147;BME280;37207;53.060;18.726;2024-01-15T00:08:47;98305.27;;;0.64;100.00
51147;BME280;37207;53.060;18.726;2024-01-15T00:11:14;98300.51;;;0.63;100.00
51147;BME280;37207;53.060;18.726;2024-01-15T00:13:40;98293.98;;;0.62;100.00
51147;BME280;37207;53.060;18.726;2024-01-15T00:16:07;98289.91;;;0.61;100.00
51147;BME280;37207;53.060;18.726;2024-01-15T00:18:33;98287.48;;;0.60;100.00
51147;BME280;37207;53.060;18.726;2024-01-15T00:21:00;98280.20;;;0.58;100.00
51147;BME280;37207;53.060;18.726;2024-01-15T00:23:26;98276.80;;;0.56;100.00
51147;BME280;37207;53.060;18.726;2024-01-15T00:25:53;98277.48;;;0.56;100.00
51147;BME280;37207;53.060;18.726;2024-01-15T00:28:19;98273.23;;;0.55;100.00
51147;BME280;37207;53.060;18.726;2024-01-15T00:30:46;98265.34;;;0.56;100.00
51147;BME280;37207;53.060;18.726;2024-01-15T00:33:12;98267.38;;;0.57;100.00
51147;BME280;37207;53.060;18.726;2024-01-15T00:35:41;98257.20;;;0.57;100.00
51147;BME280;37207;53.060;18.726;2024-01-15T00:38:08;98253.61;;;0.58;100.00
51147;BME280;37207;53.060;18.726;2024-01-15T00:40:34;98254.13;;;0.59;100.00
51147;BME280;37207;53.060;18.726;2024-01-15T00:43:01;98250.63;;;0.60;100.00
51147;BME280;37207;53.060;18.726;2024-01-15T00:45:28;98247.55;;;0.59;100.00
51147;BME280;37207;53.060;18.726;2024-01-15T00:47:55;98243.17;;;0.57;100.00
51147;BME280;37207;53.060;18.726;2024-01-15T00:50:22;98240.36;;;0.54;100.00
51147;BME280;37207;53.060;18.726;2024-01-15T00:52:49;98236.80;;;0.54;100.00
51147;BME280;37207;53.060;18.726;2024-01-15T00:55:15;98235.41;;;0.53;100.00
51147;BME280;37207;53.060;18.726;2024-01-15T00:57:42;98230.81;;;0.53;100.00
51147;BME280;37207;53.060;18.726;2024-01-15T01:00:09;98228.84;;;0.52;100.00
51147;BME280;37207;53.060;18.726;2024-01-15T01:02:36;98219.22;;;0.51;100.00
51147;BME280;37207;53.060;18.726;2024-01-15T01:05:02;98222.03;;;0.51;100.00
51147;BME280;37207;53.060;18.726;2024-01-15T01:07:29;98219.97;;;0.52;100.00
51147;BME280;37207;53.060;18.726;2024-01-15T01:09:56;98215.55;;;0.52;100.00
51147;BME280;37207;53.060;18.726;2024-01-15T01:12:22;98205.78;;;0.53;100.00
51147;BME280;37207;53.060;18.726;2024-01-15T01:14:49;98202.43;;;0.54;100.00
51147;BME280;37207;53.060;18.726;2024-01-15T01:17:16;98193.83;;;0.54;100.00
51147;BME280;37207;53.060;18.726;2024-01-15T01:19:42;98190.56;;;0.53;100.00
51147;BME280;37207;53.060;18.726;2024-01-15T01:22:09;98188.79;;;0.52;100.00
51147;BME280;37207;53.060;18.726;2024-01-15T01:24:35;98181.73;;;0.53;100.00
51147;BME280;37207;53.060;18.726;2024-01-15T01:27:02;98177.97;;;0.53;100.00
51147;BME280;37207;53.060;18.726;2024-01-15T01:29:30;98171.61;;;0.54;100.00
51147;BME280;37207;53.060;18.726;2024-01-15T01:31:56;98171.33;;;0.55;100.00
51147;BME280;37207;53.060;18.726;2024-01-15T01:34:23;98169.52;;;0.57;100.00
51147;BME280;37207;53.060;18.726;2024-01-15T01:36:49;98165.19;;;0.58;100.00
51147;BME280;37207;53.060;18.726;2024-01-15T01:39:18;98164.95;;;0.58;100.00
51147;BME280;37207;53.060;18.726;2024-01-15T01:41:45;98164.45;;;0.57;100.00
51147;BME280;37207;53.060;18.726;2024-01-15T01:44:11;98154.59;;;0.56;100.00
51147;BME280;37207;53.060;18.726;2024-01-15T01:46:38;98153.45;;;0.55;100.00
51147;BME280;37207;53.060;18.726;2024-01-15T01:49:07;98154.93;;;0.55;100.00
51147;BME280;37207;53.060;18.726;2024-01-15T01:51:35;98144.52;;;0.56;100.00
51147;BME280;37207;53.060;18.726;2024-01-15T01:54:04;98140.52;;;0.56;100.00
51147;BME280;37207;53.060;18.726;2024-01-15T01:56:33;98139.19;;;0.56;100.00
51147;BME280;37207;53.060;18.726;2024-01-15T01:59:01;98140.64;;;0.58;100.00
51147;BME280;37207;53.060;18.726;2024-01-15T02:01:31;98139.72;;;0.59;100.00
51147;BME280;37207;53.060;18.726;2024-01-15T02:03:58;98131.77;;;0.59;100.00
51147;BME280;37207;53.060;18.726;2024-01-15T02:06:24;98129.15;;;0.60;100.00
51147;BME280;37207;53.060;18.726;2024-01-15T02:08:51;98118.39;;;0.59;100.00
51147;BME280;37207;53.060;18.726;2024-01-15T02:11:18;98107.31;;;0.59;100.00
51147;BME280;37207;53.060;18.726;2024-01-15T02:13:44;98107.02;;;0.58;100.00
51147;BME280;37207;53.060;18.726;2024-01-15T02:16:11;98104.14;;;0.58;100.00
51147;BME280;37207;53.060;18.726;2024-01-15T02:18:44;98100.99;;;0.59;100.00
51147;BME280;37207;53.060;18.726;2024-01-15T02:21:12;98095.13;;;0.60;100.00
51147;BME280;37207;53.060;18.726;2024-01-15T02:23:38;98085.91;;;0.61;100.00
51147;BME280;37207;53.060;18.726;2024-01-15T02:26:05;98082.25;;;0.61;100.00
51147;BME280;37207;53.060;18.726;2024-01-15T02:28:32;98078.73;;;0.60;100.00
51147;BME280;37207;53.060;18.726;2024-01-15T02:30:59;98076.84;;;0.59;100.00
51147;BME280;37207;53.060;18.726;2024-01-15T02:33:26;98074.71;;;0.59;100.00
51147;BME280;37207;53.060;18.726;2024-01-15T02:35:53;98069.40;;;0.56;100.00
51147;BME280;37207;53.060;18.726;2024-01-15T02:38:19;98065.42;;;0.54;100.00
51147;BME280;37207;53.060;18.726;2024-01-15T02:40:46;98060.17;;;0.53;100.00
51147;BME280;37207;53.060;18.726;2024-01-15T02:43:13;98059.48;;;0.50;100.00
51147;BME280;37207;53.060;18.726;2024-01-15T02:45:40;98057.73;;;0.48;100.00
51147;BME280;37207;53.060;18.726;2024-01-15T02:48:07;98052.86;;;0.46;100.00
51147;BME280;37207;53.060;18.726;2024-01-15T02:50:33;98052.51;;;0.46;100.00
51147;BME280;37207;53.060;18.726;2024-01-15T02:53:00;98055.06;;;0.45;100.00
51147;BME280;37207;53.060;18.726;2024-01-15T02:55:26;98053.05;;;0.46;100.00
51147;BME280;37207;53.060;18.726;2024-01-15T02:57:55;98049.32;;;0.47;100.00
51147;BME280;37207;53.060;18.726;2024-01-15T03:00:22;98045.09;;;0.49;100.00
51147;BME280;37207;53.060;18.726;2024-01-15T03:02:50;98039.88;;;0.51;100.00
51147;BME280;37207;53.060;18.726;2024-01-15T03:05:17;98034.75;;;0.52;100.00
51147;BME280;37207;53.060;18.726;2024-01-15T03:07:44;98030.75;;;0.54;100.00
51147;BME280;37207;53.060;18.726;2024-01-15T03:10:10;98026.36;;;0.54;100.00
51147;BME280;37207;53.060;18.726;2024-01-15T03:12:37;98024.55;;;0.55;100.00
51147;BME280;37207;53.060;18.726;2024-01-15T03:15:04;98020.60;;;0.56;100.00
51147;BME280;37207;53.060;18.726;2024-01-15T03:17:31;98021.10;;;0.57;100.00
51147;BME280;37207;53.060;18.726;2024-01-15T03:19:57;98006.29;;;0.57;100.00
51147;BME280;37207;53.060;18.726;2024-01-15T03:22:24;98006.52;;;0.56;100.00
51147;BME280;37207;53.060;18.726;2024-01-15T03:24:50;98005.93;;;0.56;100.00
51147;BME280;37207;53.060;18.726;2024-01-15T03:27:17;98002.52;;;0.56;100.00
51147;BME280;37207;53.060;18.726;2024-01-15T03:29:43;98001.52;;;0.56;100.00
51147;BME280;37207;53.060;18.726;2024-01-15T03:32:10;97996.10;;;0.56;100.00
51147;BME280;37207;53.060;18.726;2024-01-15T03:34:36;97990.41;;;0.55;100.00
51147;BME280;37207;53.060;18.726;2024-01-15T03:37:03;97987.09;;;0.55;100.00
51147;BME280;37207;53.060;18.726;2024-01-15T03:39:30;97986.79;;;0.53;100.00
51147;BME280;37207;53.060;18.726;2024-01-15T03:41:56;97986.73;;;0.53;100.00
51147;BME280;37207;53.060;18.726;2024-01-15T03:44:23;97984.90;;;0.52;100.00
51147;BME280;37207;53.060;18.726;2024-01-15T03:46:50;97978.60;;;0.52;100.00
51147;BME280;37207;53.060;18.726;2024-01-15T03:49:16;97980.23;;;0.52;100.00
51147;BME280;37207;53.060;18.726;2024-01-15T03:51:43;97973.27;;;0.51;100.00
51147;BME280;37207;53.060;18.726;2024-01-15T03:54:09;97968.47;;;0.51;100.00
51147;BME280;37207;53.060;18.726;2024-01-15T03:56:36;97964.45;;;0.49;100.00
51147;BME280;37207;53.060;18.726;2024-01-15T03:59:02;97956.98;;;0.47;100.00
51147;BME280;37207;53.060;18.726;2024-01-15T04:01:29;97954.92;;;0.45;100.00
51147;BME280;37207;53.060;18.726;2024-01-15T04:03:55;97947.70;;;0.43;100.00
51147;BME280;37207;53.060;18.726;2024-01-15T04:06:22;97941.56;;;0.42;100.00
51147;BME280;37207;53.060;18.726;2024-01-15T04:08:49;97940.11;;;0.40;100.00
51147;BME280;37207;53.060;18.726;2024-01-15T04:11:15;97934.02;;;0.39;100.00
51147;BME280;37207;53.060;18.726;2024-01-15T04:13:42;97930.36;;;0.38;100.00
51147;BME280;37207;53.060;18.726;2024-01-15T04:16:08;97928.13;;;0.37;100.00
51147;BME280;37207;53.060;18.726;2024-01-15T04:18:35;97922.14;;;0.34;100.00
51147;BME280;37207;53.060;18.726;2024-01-15T04:21:04;97916.41;;;0.33;100.00
51147;BME280;37207;53.060;18.726;2024-01-15T04:23:32;97912.11;;;0.32;100.00
51147;BME280;37207;53.060;18.726;2024-01-15T04:25:59;97906.27;;;0.31;100.00
51147;BME280;37207;53.060;18.726;2024-01-15T04:28:25;97907.65;;;0.30;100.00
51147;BME280;37207;53.060;18.726;2024-01-15T04:30:52;97901.95;;;0.28;100.00
51147;BME280;37207;53.060;18.726;2024-01-15T04:33:18;97894.59;;;0.27;100.00
51147;BME280;37207;53.060;18.726;2024-01-15T04:35:45;97895.14;;;0.24;100.00
51147;BME280;37207;53.060;18.726;2024-01-15T04:38:12;97889.92;;;0.21;100.00
51147;BME280;37207;53.060;18.726;2024-01-15T04:40:38;97888.42;;;0.17;100.00
51147;BME280;37207;53.060;18.726;2024-01-15T04:43:05;97886.34;;;0.16;100.00
51147;BME280;37207;53.060;18.726;2024-01-15T04:45:31;97880.80;;;0.14;100.00
51147;BME280;37207;53.060;18.726;2024-01-15T04:47:58;97881.62;;;0.12;100.00
51147;BME280;37207;53.060;18.726;2024-01-15T04:50:24;97877.23;;;0.12;100.00
51147;BME280;37207;53.060;18.726;2024-01-15T04:52:51;97874.98;;;0.10;100.00
51147;BME280;37207;53.060;18.726;2024-01-15T04:55:17;97873.64;;;0.09;100.00
51147;BME280;37207;53.060;18.726;2024-01-15T04:57:44;97869.60;;;0.09;100.00
51147;BME280;37207;53.060;18.726;2024-01-15T05:00:11;97874.06;;;0.11;100.00
51147;BME280;37207;53.060;18.726;2024-01-15T05:02:39;97870.36;;;0.11;100.00
51147;BME280;37207;53.060;18.726;2024-01-15T05:05:06;97869.03;;;0.11;100.00
51147;BME280;37207;53.060;18.726;2024-01-15T05:07:32;97861.48;;;0.10;100.00
51147;BME280;37207;53.060;18.726;2024-01-15T05:09:59;97870.81;;;0.11;100.00
51147;BME280;37207;53.060;18.726;2024-01-15T05:12:25;97875.30;;;0.11;100.00
51147;BME280;37207;53.060;18.726;2024-01-15T05:14:52;97872.02;;;0.10;100.00
51147;BME280;37207;53.060;18.726;2024-01-15T05:17:19;97868.41;;;0.10;100.00
51147;BME280;37207;53.060;18.726;2024-01-15T05:19:45;97863.18;;;0.09;100.00
51147;BME280;37207;53.060;18.726;2024-01-15T05:22:12;97862.30;;;0.09;100.00
51147;BME280;37207;53.060;18.726;2024-01-15T05:24:38;97867.88;;;0.10;100.00
51147;BME280;37207;53.060;18.726;2024-01-15T05:27:05;97863.64;;;0.10;100.00
51147;BME280;37207;53.060;18.726;2024-01-15T05:29:31;97863.90;;;0.11;100.00
51147;BME280;37207;53.060;18.726;2024-01-15T05:31:58;97863.76;;;0.12;100.00
51147;BME280;37207;53.060;18.726;2024-01-15T05:34:24;97859.81;;;0.12;100.00
51147;BME280;37207;53.060;18.726;2024-01-15T05:36:51;97863.80;;;0.12;100.00
51147;BME280;37207;53.060;18.726;2024-01-15T05:39:17;97863.83;;;0.10;100.00
51147;BME280;37207;53.060;18.726;2024-01-15T05:41:44;97858.46;;;0.10;100.00
51147;BME280;37207;53.060;18.726;2024-01-15T05:44:10;97862.42;;;0.12;100.00
51147;BME280;37207;53.060;18.726;2024-01-15T05:46:37;97864.81;;;0.14;100.00
51147;BME280;37207;53.060;18.726;2024-01-15T05:49:03;97860.33;;;0.14;100.00
51147;BME280;37207;53.060;18.726;2024-01-15T05:51:30;97864.90;;;0.13;100.00
51147;BME280;37207;53.060;18.726;2024-01-15T05:53:56;97866.17;;;0.12;100.00
51147;BME280;37207;53.060;18.726;2024-01-15T05:56:23;97863.52;;;0.08;100.00
51147;BME280;37207;53.060;18.726;2024-01-15T05:58:51;97859.25;;;0.06;100.00
51147;BME280;37207;53.060;18.726;2024-01-15T06:01:18;97864.44;;;0.02;100.00
51147;BME280;37207;53.060;18.726;2024-01-15T06:03:45;97862.11;;;-0.02;100.00
51147;BME280;37207;53.060;18.726;2024-01-15T06:06:11;97867.82;;;-0.04;100.00
51147;BME280;37207;53.060;18.726;2024-01-15T06:08:38;97871.95;;;-0.05;100.00
51147;BME280;37207;53.060;18.726;2024-01-15T06:11:06;97872.73;;;-0.04;100.00
51147;BME280;37207;53.060;18.726;2024-01-15T06:13:33;97874.71;;;-0.04;100.00
51147;BME280;37207;53.060;18.726;2024-01-15T06:16:00;97875.03;;;-0.02;100.00
51147;BME280;37207;53.060;18.726;2024-01-15T06:18:26;97871.39;;;-0.02;100.00
51147;BME280;37207;53.060;18.726;2024-01-15T06:20:53;97879.56;;;-0.03;100.00
51147;BME280;37207;53.060;18.726;2024-01-15T06:23:19;97876.66;;;-0.02;100.00
51147;BME280;37207;53.060;18.726;2024-01-15T06:25:46;97873.17;;;-0.01;100.00
51147;BME280;37207;53.060;18.726;2024-01-15T06:28:12;97875.39;;;-0.01;100.00
51147;BME280;37207;53.060;18.726;2024-01-15T06:30:39;97881.70;;;0.00;100.00
51147;BME280;37207;53.060;18.726;2024-01-15T06:33:06;97885.55;;;0.00;100.00
51147;BME280;37207;53.060;18.726;2024-01-15T06:35:33;97885.80;;;0.00;100.00
51147;BME280;37207;53.060;18.726;2024-01-15T06:38:00;97884.72;;;0.01;100.00
51147;BME280;37207;53.060;18.726;2024-01-15T06:40:27;97887.30;;;0.03;100.00
51147;BME280;37207;53.060;18.726;2024-01-15T06:42:53;97876.19;;;0.03;100.00
51147;BME280;37207;53.060;18.726;2024-01-15T06:45:20;97879.85;;;0.04;100.00
51147;BME280;37207;53.060;18.726;2024-01-15T06:47:46;97879.82;;;0.05;100.00
51147;BME280;37207;53.060;18.726;2024-01-15T06:50:13;97879.42;;;0.05;100.00
51147;BME280;37207;53.060;18.726;2024-01-15T06:52:39;97879.77;;;0.04;100.00
51147;BME280;37207;53.060;18.726;2024-01-15T06:55:06;97880.48;;;0.04;100.00
51147;BME280;37207;53.060;18.726;2024-01-15T06:57:33;97876.38;;;0.02;100.00
51147;BME280;37207;53.060;18.726;2024-01-15T06:59:59;97870.99;;;0.01;100.00
51147;BME280;37207;53.060;18.726;2024-01-15T07:02:27;97868.24;;;0.02;100.00
51147;BME280;37207;53.060;18.726;2024-01-15T07:04:54;97868.35;;;0.03;100.00
51147;BME280;37207;53.060;18.726;2024-01-15T07:07:20;97867.96;;;0.04;100.00
51147;BME280;37207;53.060;18.726;2024-01-15T07:09:47;97867.63;;;0.05;100.00
51147;BME280;37207;53.060;18.726;2024-01-15T07:12:13;97867.09;;;0.05;100.00
51147;BME280;37207;53.060;18.726;2024-01-15T07:14:40;97865.20;;;0.05;100.00
51147;BME280;37207;53.060;18.726;2024-01-15T07:17:06;97864.23;;;0.06;100.00
51147;BME280;37207;53.060;18.726;2024-01-15T07:19:33;97862.53;;;0.08;100.00
51147;BME280;37207;53.060;18.726;2024-01-15T07:22:00;97864.77;;;0.10;100.00
51147;BME280;37207;53.060;18.726;2024-01-15T07:24:26;97866.31;;;0.11;100.00
51147;BME280;37207;53.060;18.726;2024-01-15T07:26:53;97867.45;;;0.11;100.00
51147;BME280;37207;53.060;18.726;2024-01-15T07:29:19;97876.88;;;0.11;100.00
51147;BME280;37207;53.060;18.726;2024-01-15T07:31:50;97878.31;;;0.12;100.00
51147;BME280;37207;53.060;18.726;2024-01-15T07:34:17;97877.77;;;0.13;100.00
51147;BME280;37207;53.060;18.726;2024-01-15T07:36:44;97877.60;;;0.14;100.00
51147;BME280;37207;53.060;18.726;2024-01-15T07:39:12;97878.21;;;0.17;100.00
51147;BME280;37207;53.060;18.726;2024-01-15T07:41:38;97882.76;;;0.19;100.00
51147;BME280;37207;53.060;18.726;2024-01-15T07:44:05;97883.64;;;0.18;100.00
51147;BME280;37207;53.060;18.726;2024-01-15T07:46:32;97884.52;;;0.18;100.00
51147;BME280;37207;53.060;18.726;2024-01-15T07:48:58;97873.33;;;0.19;100.00
51147;BME280;37207;53.060;18.726;2024-01-15T07:51:25;97866.65;;;0.23;100.00
51147;BME280;37207;53.060;18.726;2024-01-15T07:53:54;97864.11;;;0.25;100.00
51147;BME280;37207;53.060;18.726;2024-01-15T07:56:22;97860.13;;;0.27;100.00
51147;BME280;37207;53.060;18.726;2024-01-15T07:58:48;97857.27;;;0.27;99.96
51147;BME280;37207;53.060;18.726;2024-01-15T08:01:15;97861.98;;;0.26;99.95
51147;BME280;37207;53.060;18.726;2024-01-15T08:03:42;97856.95;;;0.24;99.95
51147;BME280;37207;53.060;18.726;2024-01-15T08:06:09;97861.29;;;0.25;99.95
51147;BME280;37207;53.060;18.726;2024-01-15T08:08:37;97866.77;;;0.24;99.77
51147;BME280;37207;53.060;18.726;2024-01-15T08:11:04;97856.20;;;0.24;99.76
51147;BME280;37207;53.060;18.726;2024-01-15T08:13:31;97854.69;;;0.26;99.62
51147;BME280;37207;53.060;18.726;2024-01-15T08:15:57;97855.58;;;0.26;99.69
51147;BME280;37207;53.060;18.726;2024-01-15T08:18:24;97857.61;;;0.27;99.59
51147;BME280;37207;53.060;18.726;2024-01-15T08:20:51;97854.94;;;0.26;99.39
51147;BME280;37207;53.060;18.726;2024-01-15T08:23:18;97856.31;;;0.26;99.53
51147;BME280;37207;53.060;18.726;2024-01-15T08:25:46;97853.80;;;0.26;99.51
51147;BME280;37207;53.060;18.726;2024-01-15T08:28:12;97854.80;;;0.28;99.56
51147;BME280;37207;53.060;18.726;2024-01-15T08:30:39;97857.59;;;0.30;99.63
51147;BME280;37207;53.060;18.726;2024-01-15T08:33:05;97859.20;;;0.35;99.57
51147;BME280;37207;53.060;18.726;2024-01-15T08:35:32;97862.25;;;0.41;99.52
51147;BME280;37207;53.060;18.726;2024-01-15T08:37:59;97861.50;;;0.45;99.47
51147;BME280;37207;53.060;18.726;2024-01-15T08:40:25;97858.89;;;0.54;99.49
51147;BME280;37207;53.060;18.726;2024-01-15T08:42:52;97858.84;;;0.68;99.34
51147;BME280;37207;53.060;18.726;2024-01-15T08:45:18;97863.27;;;0.75;99.03
51147;BME280;37207;53.060;18.726;2024-01-15T08:47:46;97860.16;;;0.75;98.93
51147;BME280;37207;53.060;18.726;2024-01-15T08:50:13;97858.91;;;0.74;98.73
51147;BME280;37207;53.060;18.726;2024-01-15T08:52:39;97847.80;;;0.73;98.53
51147;BME280;37207;53.060;18.726;2024-01-15T08:55:06;97849.07;;;0.70;98.69
51147;BME280;37207;53.060;18.726;2024-01-15T08:57:33;97842.02;;;0.65;98.45
51147;BME280;37207;53.060;18.726;2024-01-15T09:00:00;97851.91;;;0.59;98.41
51147;BME280;37207;53.060;18.726;2024-01-15T09:02:27;97852.91;;;0.55;98.34
51147;BME280;37207;53.060;18.726;2024-01-15T09:04:54;97850.98;;;0.54;98.42
51147;BME280;37207;53.060;18.726;2024-01-15T09:07:20;97846.73;;;0.59;98.55
51147;BME280;37207;53.060;18.726;2024-01-15T09:09:47;97845.30;;;0.68;98.46
51147;BME280;37207;53.060;18.726;2024-01-15T09:12:14;97852.32;;;0.78;98.49
51147;BME280;37207;53.060;18.726;2024-01-15T09:14:41;97844.20;;;0.82;97.97
51147;BME280;37207;53.060;18.726;2024-01-15T09:17:08;97836.50;;;0.83;97.66
51147;BME280;37207;53.060;18.726;2024-01-15T09:19:34;97841.65;;;0.96;97.66
51147;BME280;37207;53.060;18.726;2024-01-15T09:22:01;97847.48;;;1.07;97.42
51147;BME280;37207;53.060;18.726;2024-01-15T09:24:28;97845.55;;;1.07;97.24
51147;BME280;37207;53.060;18.726;2024-01-15T09:26:54;97836.45;;;1.07;97.39
51147;BME280;37207;53.060;18.726;2024-01-15T09:29:21;97834.91;;;1.04;97.09
51147;BME280;37207;53.060;18.726;2024-01-15T09:31:50;97834.31;;;1.00;96.83
51147;BME280;37207;53.060;18.726;2024-01-15T09:34:17;97835.91;;;0.95;96.54
51147;BME280;37207;53.060;18.726;2024-01-15T09:36:44;97833.02;;;0.90;96.60
51147;BME280;37207;53.060;18.726;2024-01-15T09:39:10;97828.80;;;0.86;96.69
51147;BME280;37207;53.060;18.726;2024-01-15T09:41:37;97831.27;;;0.85;96.60
51147;BME280;37207;53.060;18.726;2024-01-15T09:44:05;97818.70;;;0.93;96.44
51147;BME280;37207;53.060;18.726;2024-01-15T09:46:32;97820.01;;;0.95;96.46
51147;BME280;37207;53.060;18.726;2024-01-15T09:48:59;97816.77;;;0.98;96.40
51147;BME280;37207;53.060;18.726;2024-01-15T09:51:26;97815.13;;;0.99;95.96
51147;BME280;37207;53.060;18.726;2024-01-15T09:53:54;97804.59;;;0.97;95.95
51147;BME280;37207;53.060;18.726;2024-01-15T09:56:21;97805.11;;;0.93;95.69
51147;BME280;37207;53.060;18.726;2024-01-15T09:58:48;97806.29;;;0.91;95.85
51147;BME280;37207;53.060;18.726;2024-01-15T10:01:17;97796.92;;;0.95;95.85
51147;BME280;37207;53.060;18.726;2024-01-15T10:03:44;97802.21;;;0.96;95.43
51147;BME280;37207;53.060;18.726;2024-01-15T10:06:11;97804.38;;;0.94;95.43
51147;BME280;37207;53.060;18.726;2024-01-15T10:08:43;97807.62;;;0.90;95.35
51147;BME280;37207;53.060;18.726;2024-01-15T10:11:13;97798.04;;;0.91;95.48
51147;BME280;37207;53.060;18.726;2024-01-15T10:13:40;97800.13;;;0.94;95.73
51147;BME280;37207;53.060;18.726;2024-01-15T10:16:07;97797.09;;;0.98;95.73
51147;BME280;37207;53.060;18.726;2024-01-15T10:18:33;97797.26;;;1.04;95.80
51147;BME280;37207;53.060;18.726;2024-01-15T10:21:00;97793.70;;;1.07;95.48
51147;BME280;37207;53.060;18.726;2024-01-15T10:23:26;97789.94;;;1.05;95.31
51147;BME280;37207;53.060;18.726;2024-01-15T10:25:53;97788.12;;;1.02;95.16
51147;BME280;37207;53.060;18.726;2024-01-15T10:28:19;97786.63;;;1.04;95.21
51147;BME280;37207;53.060;18.726;2024-01-15T10:30:47;97785.35;;;1.08;94.97
51147;BME280;37207;53.060;18.726;2024-01-15T10:33:22;97790.79;;;1.08;95.08
51147;BME280;37207;53.060;18.726;2024-01-15T10:35:54;97786.53;;;1.08;94.90
51147;BME280;37207;53.060;18.726;2024-01-15T10:38:22;97788.31;;;1.07;94.76
51147;BME280;37207;53.060;18.726;2024-01-15T10:40:53;97800.31;;;1.04;94.94
51147;BME280;37207;53.060;18.726;2024-01-15T10:43:21;97786.38;;;1.01;94.18
51147;BME280;37207;53.060;18.726;2024-01-15T10:45:50;97790.92;;;1.02;94.32
51147;BME280;37207;53.060;18.726;2024-01-15T10:48:18;97795.02;;;1.04;94.38
51147;BME280;37207;53.060;18.726;2024-01-15T10:50:48;97802.83;;;1.05;94.08
51147;BME280;37207;53.060;18.726;2024-01-15T10:53:16;97795.71;;;1.04;93.94
51147;BME280;37207;53.060;18.726;2024-01-15T10:55:43;97801.39;;;1.04;93.73
51147;BME280;37207;53.060;18.726;2024-01-15T10:58:14;97798.18;;;1.05;93.05
51147;BME280;37207;53.060;18.726;2024-01-15T11:00:41;97798.94;;;1.02;92.77
51147;BME280;37207;53.060;18.726;2024-01-15T11:03:08;97790.79;;;1.01;92.52
51147;BME280;37207;53.060;18.726;2024-01-15T11:05:38;97788.75;;;1.00;92.21
51147;BME280;37207;53.060;18.726;2024-01-15T11:08:06;97797.83;;;0.99;92.66
51147;BME280;37207;53.060;18.726;2024-01-15T11:10:41;97810.77;;;0.98;93.38
51147;BME280;37207;53.060;18.726;2024-01-15T11:13:21;97809.25;;;1.00;93.51
51147;BME280;37207;53.060;18.726;2024-01-15T11:18:36;97801.02;;;1.32;93.56
51147;BME280;37207;53.060;18.726;2024-01-15T11:26:32;97782.80;;;2.01;92.96
51147;BME280;37207;53.060;18.726;2024-01-15T11:29:06;97783.44;;;2.21;92.22
51147;BME280;37207;53.060;18.726;2024-01-15T11:34:03;97780.82;;;2.22;90.71
51147;BME280;37207;53.060;18.726;2024-01-15T11:41:58;97765.63;;;2.01;90.52
51147;BME280;37207;53.060;18.726;2024-01-15T11:44:26;97762.22;;;1.88;90.43
51147;BME280;37207;53.060;18.726;2024-01-15T11:47:02;97762.30;;;1.77;90.72
51147;BME280;37207;53.060;18.726;2024-01-15T11:52:18;97748.02;;;1.69;91.11
51147;BME280;37207;53.060;18.726;2024-01-15T11:55:07;97742.71;;;1.69;91.34
51147;BME280;37207;53.060;18.726;2024-01-15T11:57:40;97741.27;;;1.79;91.01
51147;BME280;37207;53.060;18.726;2024-01-15T12:00:10;97741.96;;;2.09;91.09
51147;BME280;37207;53.060;18.726;2024-01-15T12:02:45;97741.02;;;2.33;89.66
51147;BME280;37207;53.060;18.726;2024-01-15T12:05:16;97730.29;;;2.39;88.99
51147;BME280;37207;53.060;18.726;2024-01-15T12:07:45;97737.27;;;2.32;88.15
51147;BME280;37207;53.060;18.726;2024-01-15T12:10:14;97742.86;;;2.26;88.06
51147;BME280;37207;53.060;18.726;2024-01-15T12:15:14;97753.88;;;2.09;85.89
51147;BME280;37207;53.060;18.726;2024-01-15T12:17:41;97752.77;;;2.05;86.72
51147;BME280;37207;53.060;18.726;2024-01-15T12:20:07;97749.14;;;2.01;86.38
51147;BME280;37207;53.060;18.726;2024-01-15T12:22:34;97754.88;;;1.97;86.39
51147;BME280;37207;53.060;18.726;2024-01-15T12:25:01;97752.89;;;1.95;85.79
51147;BME280;37207;53.060;18.726;2024-01-15T12:27:27;97751.32;;;1.91;86.13
51147;BME280;37207;53.060;18.726;2024-01-15T12:29:54;97756.68;;;1.86;85.80
51147;BME280;37207;53.060;18.726;2024-01-15T12:32:20;97764.92;;;1.79;86.24
51147;BME280;37207;53.060;18.726;2024-01-15T12:34:51;97769.83;;;1.71;85.25
51147;BME280;37207;53.060;18.726;2024-01-15T12:37:18;97763.73;;;1.63;85.47
51147;BME280;37207;53.060;18.726;2024-01-15T12:39:47;97773.52;;;1.59;85.35
51147;BME280;37207;53.060;18.726;2024-01-15T12:42:14;97778.91;;;1.60;85.46
51147;BME280;37207;53.060;18.726;2024-01-15T12:44:42;97772.00;;;1.64;86.09
51147;BME280;37207;53.060;18.726;2024-01-15T12:47:08;97768.23;;;1.66;86.54
51147;BME280;37207;53.060;18.726;2024-01-15T12:49:38;97779.13;;;1.67;86.20
51147;BME280;37207;53.060;18.726;2024-01-15T12:52:08;97774.66;;;1.63;86.02
51147;BME280;37207;53.060;18.726;2024-01-15T12:54:35;97770.30;;;1.54;86.01
51147;BME280;37207;53.060;18.726;2024-01-15T12:57:01;97763.50;;;1.45;86.18
51147;BME280;37207;53.060;18.726;2024-01-15T12:59:28;97769.27;;;1.54;86.02
51147;BME280;37207;53.060;18.726;2024-01-15T13:01:56;97764.13;;;1.64;86.51
51147;BME280;37207;53.060;18.726;2024-01-15T13:04:23;97769.17;;;1.73;85.80
51147;BME280;37207;53.060;18.726;2024-01-15T13:06:50;97769.55;;;2.02;85.42
51147;BME280;37207;53.060;18.726;2024-01-15T13:09:17;97770.50;;;2.28;83.77
51147;BME280;37207;53.060;18.726;2024-01-15T13:11:44;97778.42;;;2.39;84.50
51147;BME280;37207;53.060;18.726;2024-01-15T13:14:12;97774.83;;;2.48;84.14